Time;durP1;ratioP1;P1;durP2;ratioP2;P2;SDS_P1;SDS_P2;PMS_P1;PMS_P2;Temp;Humidity;BMP_temperature;BMP_pressure;BME280_temperature;BME280_humidity;BME280_pressure;Samples;Min_cycle;Max_cycle;Signal;HPM_P1;HPM_P2
2022/07/15 00:02:10;;;;;;;2.88;1.00;;;19.90;71.90;;;;;;6213735;23;20157;-75
2022/07/15 00:04:36;;;;;;;1.77;0.90;;;19.90;72.00;;;;;;6213170;23;20157;-75
2022/07/15 00:07:05;;;;;;;1.85;0.93;;;19.80;71.90;;;;;;6213304;23;20173;-76
2022/07/15 00:12:15;;;;;;;2.40;1.00;;;19.70;72.30;;;;;;6214781;23;20144;-74
2022/07/15 00:14:43;;;;;;;1.20;0.80;;;19.70;72.40;;;;;;6213635;23;20189;-75
2022/07/15 00:17:16;;;;;;;1.42;0.68;;;19.70;72.90;;;;;;6214027;23;20157;-74
2022/07/15 00:19:42;;;;;;;1.88;1.00;;;19.60;73.00;;;;;;6213017;23;20149;-74
2022/07/15 00:22:11;;;;;;;1.42;0.80;;;19.60;72.80;;;;;;6213582;23;20160;-74
2022/07/15 00:24:37;;;;;;;2.05;0.90;;;19.60;73.50;;;;;;6213401;23;20167;-75
2022/07/15 00:27:03;;;;;;;2.03;0.95;;;19.60;73.30;;;;;;6213388;23;20264;-76
2022/07/15 00:29:32;;;;;;;1.98;0.88;;;19.50;73.30;;;;;;6213717;23;20159;-75
2022/07/15 00:32:01;;;;;;;2.92;1.02;;;19.50;73.50;;;;;;6212560;23;20150;-76
2022/07/15 00:34:26;;;;;;;2.55;1.00;;;19.40;74.20;;;;;;6212185;23;20154;-74
2022/07/15 00:36:52;;;;;;;2.10;1.13;;;19.40;74.60;;;;;;6214171;23;20142;-75
2022/07/15 00:39:20;;;;;;;2.13;1.20;;;19.40;74.80;;;;;;6212959;23;20232;-75
2022/07/15 00:41:46;;;;;;;2.58;1.20;;;19.30;75.50;;;;;;6212747;23;20177;-74
2022/07/15 00:44:11;;;;;;;2.95;1.00;;;19.20;74.90;;;;;;6212860;23;20171;-74
2022/07/15 00:46:37;;;;;;;1.60;1.00;;;19.20;75.20;;;;;;6213084;23;20184;-74
2022/07/15 00:49:06;;;;;;;2.65;0.98;;;19.10;75.30;;;;;;6212934;23;20177;-76
2022/07/15 00:51:51;;;;;;;2.30;1.00;;;19.00;76.30;;;;;;6213277;23;20229;-75
2022/07/15 00:54:26;;;;;;;1.58;0.93;;;18.90;78.60;;;;;;6212714;23;20244;-76
2022/07/15 00:56:57;;;;;;;1.30;0.93;;;18.90;77.70;;;;;;6213279;23;20228;-74
2022/07/15 00:59:34;;;;;;;2.00;0.98;;;18.80;76.70;;;;;;6212680;23;20225;-75
2022/07/15 01:02:01;;;;;;;1.35;1.05;;;18.80;76.90;;;;;;6214191;23;20138;-75
2022/07/15 01:04:28;;;;;;;2.17;1.10;;;18.70;77.00;;;;;;6212816;23;20165;-75
2022/07/15 01:06:53;;;;;;;2.45;1.20;;;18.70;77.10;;;;;;6213021;23;20168;-74
2022/07/15 01:09:20;;;;;;;2.15;1.20;;;18.60;77.70;;;;;;6213406;23;20161;-73
2022/07/15 01:11:48;;;;;;;3.17;1.30;;;18.60;77.90;;;;;;6213333;23;20157;-73
2022/07/15 01:14:14;;;;;;;2.13;1.23;;;18.50;78.30;;;;;;6214306;23;20206;-75
2022/07/15 01:16:40;;;;;;;2.47;1.30;;;18.50;79.10;;;;;;6213361;23;20181;-75
2022/07/15 01:19:06;;;;;;;4.75;1.40;;;18.40;78.70;;;;;;6213286;23;20169;-75
2022/07/15 01:21:31;;;;;;;2.67;1.05;;;18.40;79.20;;;;;;6213031;23;20215;-74
2022/07/15 01:23:57;;;;;;;2.00;1.20;;;18.30;79.10;;;;;;6213628;23;20168;-73
2022/07/15 01:26:23;;;;;;;1.70;1.10;;;18.30;79.60;;;;;;6214037;23;20177;-76
2022/07/15 01:28:49;;;;;;;3.08;1.10;;;18.30;80.40;;;;;;6215586;23;20181;-76
2022/07/15 01:31:16;;;;;;;4.95;1.27;;;18.30;80.40;;;;;;6214667;23;20188;-74
2022/07/15 01:33:42;;;;;;;2.10;1.10;;;18.20;81.00;;;;;;6214801;23;20238;-75
2022/07/15 01:36:08;;;;;;;3.15;1.30;;;18.10;80.90;;;;;;6232215;23;20177;-69
2022/07/15 01:38:33;;;;;;;1.33;1.13;;;18.10;81.20;;;;;;6237627;23;20161;-69
2022/07/15 01:41:01;;;;;;;3.22;1.23;;;18.10;81.20;;;;;;6228639;23;20172;-75
2022/07/15 01:43:29;;;;;;;2.03;1.20;;;18.00;81.70;;;;;;6214128;23;20188;-75
2022/07/15 01:45:55;;;;;;;2.33;1.35;;;18.00;82.20;;;;;;6213396;23;20553;-74
2022/07/15 01:51:07;;;;;;;3.95;1.20;;;17.90;82.40;;;;;;6215679;23;20188;-74
2022/07/15 01:53:37;;;;;;;2.03;1.05;;;17.90;82.30;;;;;;6220854;23;20153;-74
2022/07/15 01:56:03;;;;;;;3.67;1.17;;;17.80;83.10;;;;;;6214351;23;20173;-74
2022/07/15 01:58:29;;;;;;;2.55;1.35;;;17.80;82.90;;;;;;6214825;23;20160;-74
2022/07/15 02:00:55;;;;;;;1.83;0.90;;;17.80;83.60;;;;;;6214936;23;20153;-74
2022/07/15 02:03:21;;;;;;;2.05;1.23;;;17.80;83.70;;;;;;6218967;23;20168;-73
2022/07/15 02:05:46;;;;;;;2.35;1.10;;;17.80;84.30;;;;;;6215390;23;20207;-73
2022/07/15 02:08:12;;;;;;;1.45;0.90;;;17.80;84.80;;;;;;6215263;23;20160;-73
2022/07/15 02:10:43;;;;;;;1.63;1.10;;;17.80;85.20;;;;;;6217476;23;20161;-72
2022/07/15 02:13:11;;;;;;;2.55;1.15;;;17.80;85.50;;;;;;6215925;23;20367;-74
2022/07/15 02:15:40;;;;;;;2.30;1.23;;;17.80;86.10;;;;;;6214953;23;20184;-72
2022/07/15 02:18:07;;;;;;;2.00;1.10;;;17.90;86.20;;;;;;6215968;23;20176;-75
2022/07/15 02:20:34;;;;;;;2.17;1.10;;;17.90;86.60;;;;;;6215991;23;20208;-74
2022/07/15 02:23:01;;;;;;;2.85;1.10;;;17.90;86.90;;;;;;6215314;23;20236;-73
2022/07/15 02:25:31;;;;;;;1.92;1.05;;;18.00;87.10;;;;;;6214405;23;20162;-74
2022/07/15 02:27:59;;;;;;;2.05;1.10;;;18.00;88.10;;;;;;6214309;23;20221;-74
2022/07/15 02:30:27;;;;;;;1.63;0.90;;;18.10;87.90;;;;;;6215514;23;20153;-74
2022/07/15 02:32:53;;;;;;;2.03;1.30;;;18.10;87.90;;;;;;6215540;23;20157;-74
2022/07/15 02:35:19;;;;;;;1.80;1.13;;;18.10;88.30;;;;;;6219641;23;20192;-73
2022/07/15 02:37:45;;;;;;;2.40;1.08;;;18.20;88.80;;;;;;6218615;23;20188;-74
2022/07/15 02:40:11;;;;;;;4.25;1.15;;;18.20;88.90;;;;;;6213951;23;20184;-75
2022/07/15 02:42:37;;;;;;;2.10;1.13;;;18.20;89.30;;;;;;6217132;23;20176;-74
2022/07/15 02:45:03;;;;;;;2.70;1.20;;;18.20;89.40;;;;;;6218552;23;20158;-73
2022/07/15 02:47:29;;;;;;;4.45;1.20;;;18.20;89.50;;;;;;6219004;23;20401;-74
2022/07/15 02:49:55;;;;;;;2.90;1.20;;;18.30;89.90;;;;;;6214487;23;20179;-74
2022/07/15 02:52:23;;;;;;;2.03;1.25;;;18.30;90.00;;;;;;6215592;23;20165;-74
2022/07/15 02:54:53;;;;;;;2.67;1.25;;;18.30;90.20;;;;;;6214244;23;20220;-74
2022/07/15 02:57:19;;;;;;;3.05;1.38;;;18.30;90.20;;;;;;6216412;23;20149;-73
2022/07/15 02:59:45;;;;;;;2.10;1.13;;;18.40;90.30;;;;;;6217233;23;20167;-73
2022/07/15 03:02:10;;;;;;;3.75;1.50;;;18.40;90.60;;;;;;6215967;23;20149;-75
2022/07/15 03:04:38;;;;;;;2.00;1.40;;;18.40;91.20;;;;;;6214550;23;20160;-74
2022/07/15 03:07:04;;;;;;;4.22;1.42;;;18.40;91.20;;;;;;6214775;23;20172;-74
2022/07/15 03:09:32;;;;;;;2.38;1.30;;;18.40;91.10;;;;;;6215822;23;20150;-74
2022/07/15 03:11:57;;;;;;;3.50;1.70;;;18.40;91.00;;;;;;6214369;23;20207;-74
2022/07/15 03:14:25;;;;;;;4.35;1.90;;;18.40;91.10;;;;;;6213980;23;20158;-74
2022/07/15 03:16:51;;;;;;;2.70;1.40;;;18.40;91.00;;;;;;6215346;23;20154;-74
2022/07/15 03:19:19;;;;;;;2.70;1.48;;;18.50;91.30;;;;;;6214212;23;20215;-74
2022/07/15 03:21:50;;;;;;;5.25;1.70;;;18.50;91.50;;;;;;6214637;23;20149;-74
2022/07/15 03:24:16;;;;;;;4.20;1.38;;;18.40;91.50;;;;;;6214292;23;20156;-74
2022/07/15 03:26:47;;;;;;;2.65;1.30;;;18.40;91.30;;;;;;6215689;23;20171;-74
2022/07/15 03:29:15;;;;;;;4.97;1.60;;;18.40;91.50;;;;;;6214092;23;20177;-74
2022/07/15 03:31:46;;;;;;;3.97;1.30;;;18.40;91.30;;;;;;6213350;23;20153;-72
2022/07/15 03:34:15;;;;;;;2.70;1.35;;;18.40;91.40;;;;;;6213418;23;20164;-73
2022/07/15 03:36:41;;;;;;;4.72;1.85;;;18.40;91.40;;;;;;6213460;23;20201;-73
2022/07/15 03:39:10;;;;;;;3.45;1.90;;;18.40;91.40;;;;;;6213674;23;20233;-74
2022/07/15 03:41:40;;;;;;;4.47;1.73;;;18.40;91.50;;;;;;6212767;23;20153;-74
2022/07/15 03:44:08;;;;;;;4.45;1.60;;;18.50;91.70;;;;;;6212973;23;20192;-73
2022/07/15 03:46:34;;;;;;;2.33;1.30;;;18.50;91.70;;;;;;6212785;23;20296;-75
2022/07/15 03:49:00;;;;;;;3.60;1.70;;;18.50;91.60;;;;;;6212967;23;20204;-74
2022/07/15 03:51:30;;;;;;;2.70;1.80;;;18.50;91.60;;;;;;6213568;23;20177;-73
2022/07/15 03:54:06;;;;;;;2.83;1.30;;;18.50;91.60;;;;;;6213262;23;20153;-74
2022/07/15 03:56:32;;;;;;;2.95;1.30;;;18.50;91.80;;;;;;6212931;23;20187;-74
2022/07/15 03:58:58;;;;;;;3.33;1.40;;;18.50;91.40;;;;;;6213217;23;20189;-74
2022/07/15 04:01:24;;;;;;;2.45;1.13;;;18.50;91.40;;;;;;6213697;23;20152;-75
2022/07/15 04:03:52;;;;;;;3.75;1.35;;;18.50;91.30;;;;;;6213532;23;20338;-74
2022/07/15 04:06:19;;;;;;;5.70;1.70;;;18.50;91.30;;;;;;6212955;23;20187;-71
2022/07/15 04:08:48;;;;;;;2.40;1.33;;;18.50;91.30;;;;;;6213128;23;20248;-74
2022/07/15 04:11:14;;;;;;;2.90;1.10;;;18.40;91.20;;;;;;6212708;23;20149;-74
2022/07/15 04:13:46;;;;;;;2.20;1.00;;;18.40;91.20;;;;;;6213265;23;20153;-73
2022/07/15 04:16:12;;;;;;;3.00;1.00;;;18.40;91.20;;;;;;6213177;23;20188;-75
2022/07/15 04:18:41;;;;;;;2.15;0.95;;;18.50;91.30;;;;;;6213283;23;20173;-74
2022/07/15 04:21:06;;;;;;;4.45;1.30;;;18.50;91.40;;;;;;6213129;23;20153;-72
2022/07/15 04:23:32;;;;;;;2.20;1.00;;;18.50;91.40;;;;;;6213494;23;20209;-74
2022/07/15 04:25:58;;;;;;;3.28;1.20;;;18.50;91.70;;;;;;6212483;23;20185;-73
2022/07/15 04:28:24;;;;;;;2.60;1.15;;;18.50;91.80;;;;;;6213364;23;20164;-74
2022/07/15 04:30:53;;;;;;;1.95;1.00;;;18.50;92.00;;;;;;6213353;23;20153;-74
2022/07/15 04:33:19;;;;;;;2.63;1.10;;;18.50;92.50;;;;;;6212908;23;20189;-72
2022/07/15 04:35:46;;;;;;;4.82;1.30;;;18.50;92.00;;;;;;6212387;23;20201;-70
2022/07/15 04:38:14;;;;;;;2.75;1.20;;;18.50;92.00;;;;;;6213676;23;20305;-73
2022/07/15 04:40:43;;;;;;;3.08;1.27;;;18.50;92.00;;;;;;6215988;23;20232;-72
2022/07/15 04:43:08;;;;;;;2.83;1.25;;;18.50;92.10;;;;;;6213423;23;20192;-74
2022/07/15 04:45:36;;;;;;;2.92;1.30;;;18.50;92.40;;;;;;6212813;23;20233;-74
2022/07/15 04:50:45;;;;;;;3.47;1.40;;;18.50;92.50;;;;;;6213657;23;20153;-74
2022/07/15 04:50:51;;;;;;;3.75;1.20;;;18.50;92.60;;;;;;6213616;23;20169;-73
2022/07/15 04:53:18;;;;;;;2.60;1.30;;;18.40;92.50;;;;;;6214479;23;20219;-72
2022/07/15 04:55:47;;;;;;;3.00;1.50;;;18.40;92.60;;;;;;6217304;23;20181;-73
2022/07/15 04:58:15;;;;;;;2.85;1.50;;;18.40;93.00;;;;;;6213818;23;20159;-73
2022/07/15 05:00:42;;;;;;;4.07;1.75;;;18.40;93.20;;;;;;6215797;23;20153;-73
2022/07/15 05:03:08;;;;;;;3.70;1.48;;;18.40;93.20;;;;;;6215869;23;20173;-74
2022/07/15 05:05:33;;;;;;;1.60;1.40;;;18.50;93.30;;;;;;6213309;23;20153;-73
2022/07/15 05:07:59;;;;;;;4.45;1.50;;;18.50;93.30;;;;;;6213583;23;20160;-73
2022/07/15 05:10:29;;;;;;;4.35;1.58;;;18.50;93.60;;;;;;6215620;23;20157;-74
2022/07/15 05:12:55;;;;;;;6.22;1.38;;;18.50;93.80;;;;;;6216364;23;20169;-75
2022/07/15 05:15:25;;;;;;;3.13;1.40;;;18.50;93.70;;;;;;6217870;23;20189;-74
2022/07/15 05:17:51;;;;;;;3.65;1.60;;;18.50;94.00;;;;;;6213683;23;20232;-74
2022/07/15 05:20:19;;;;;;;3.45;1.73;;;18.50;94.00;;;;;;6218575;23;20164;-73
2022/07/15 05:22:47;;;;;;;4.05;1.75;;;18.50;94.60;;;;;;6214539;23;20253;-72
2022/07/15 05:25:13;;;;;;;4.32;1.52;;;18.50;94.30;;;;;;6218032;23;20160;-73
2022/07/15 05:27:38;;;;;;;4.22;1.90;;;18.50;94.70;;;;;;6218583;23;20196;-74
2022/07/15 05:30:04;;;;;;;3.95;1.98;;;18.50;94.80;;;;;;6216751;23;20153;-73
2022/07/15 05:32:32;;;;;;;4.38;1.67;;;18.50;94.90;;;;;;6218758;23;20203;-73
2022/07/15 05:35:00;;;;;;;2.63;1.70;;;18.50;94.90;;;;;;6218919;23;20193;-73
2022/07/15 05:37:28;;;;;;;3.28;1.50;;;18.50;95.30;;;;;;6217476;23;20197;-72
2022/07/15 05:39:53;;;;;;;2.92;1.48;;;18.50;95.20;;;;;;6215013;23;20169;-72
2022/07/15 05:42:23;;;;;;;4.22;1.70;;;18.50;95.60;;;;;;6216540;23;20154;-71
2022/07/15 05:44:48;;;;;;;7.78;1.80;;;18.50;95.60;;;;;;6192272;23;20165;-72
2022/07/15 05:47:15;;;;;;;4.75;1.60;;;18.50;95.60;;;;;;6192884;23;20280;-72
2022/07/15 05:49:44;;;;;;;3.92;1.40;;;18.50;95.90;;;;;;6189809;23;20175;-72
2022/07/15 05:52:09;;;;;;;3.60;1.50;;;18.50;96.00;;;;;;6189961;23;20180;-73
2022/07/15 05:54:40;;;;;;;4.15;1.90;;;18.50;96.00;;;;;;6192188;23;20149;-73
2022/07/15 05:57:05;;;;;;;4.57;1.73;;;18.50;96.30;;;;;;6199827;23;20452;-73
2022/07/15 05:59:33;;;;;;;4.15;1.45;;;18.50;96.70;;;;;;6192212;23;20177;-73
2022/07/15 06:02:03;;;;;;;3.03;1.70;;;18.50;96.70;;;;;;6194511;23;20157;-70
2022/07/15 06:04:31;;;;;;;2.83;1.40;;;18.50;96.90;;;;;;6193674;23;20222;-73
2022/07/15 06:06:57;;;;;;;5.22;1.63;;;18.50;97.00;;;;;;6191383;23;20161;-73
2022/07/15 06:09:23;;;;;;;2.65;1.60;;;18.50;97.00;;;;;;6193640;23;20244;-71
2022/07/15 06:11:50;;;;;;;5.70;1.60;;;18.50;97.10;;;;;;6196226;23;20187;-72
2022/07/15 06:14:16;;;;;;;4.63;1.85;;;18.50;97.20;;;;;;6193839;23;20157;-70
2022/07/15 06:16:42;;;;;;;3.95;1.77;;;18.50;97.40;;;;;;6216889;23;20169;-72
2022/07/15 06:19:10;;;;;;;6.30;1.90;;;18.50;97.50;;;;;;6190280;23;20268;-72
2022/07/15 06:21:36;;;;;;;5.22;2.08;;;18.50;97.30;;;;;;6193882;23;20222;-71
2022/07/15 06:24:05;;;;;;;4.13;1.88;;;18.50;97.60;;;;;;6194054;23;20252;-73
2022/07/15 06:26:33;;;;;;;5.05;2.20;;;18.50;97.90;;;;;;6190859;23;20161;-72
2022/07/15 06:28:58;;;;;;;4.18;1.95;;;18.60;98.10;;;;;;6191231;23;20164;-73
2022/07/15 06:31:24;;;;;;;3.88;1.67;;;18.60;98.40;;;;;;6190485;23;20158;-73
2022/07/15 06:33:50;;;;;;;4.13;1.90;;;18.60;98.10;;;;;;6193594;23;20157;-74
2022/07/15 06:36:15;;;;;;;2.88;1.65;;;18.60;97.90;;;;;;6191479;23;20189;-73
2022/07/15 06:38:41;;;;;;;2.65;1.65;;;18.60;97.90;;;;;;6199040;23;20168;-73
2022/07/15 06:41:06;;;;;;;7.63;2.28;;;18.60;98.00;;;;;;6191490;23;20200;-69
2022/07/15 06:43:32;;;;;;;3.03;1.70;;;18.60;97.90;;;;;;6207790;23;20177;-74
2022/07/15 06:46:01;;;;;;;4.57;1.73;;;18.60;98.00;;;;;;6216422;23;20240;-72
2022/07/15 06:48:26;;;;;;;4.88;2.03;;;18.70;98.10;;;;;;6219487;23;20156;-71
2022/07/15 06:50:52;;;;;;;4.65;1.88;;;18.70;98.40;;;;;;6218793;23;20158;-72
2022/07/15 06:53:18;;;;;;;3.80;2.00;;;18.80;98.50;;;;;;6214312;23;20161;-73
2022/07/15 06:55:43;;;;;;;2.65;1.48;;;18.90;98.80;;;;;;6218167;23;20539;-72
2022/07/15 06:58:11;;;;;;;2.70;1.50;;;19.00;98.70;;;;;;6216108;23;20393;-74
2022/07/15 07:00:37;;;;;;;4.20;1.52;;;19.10;98.40;;;;;;6217426;23;20145;-74
2022/07/15 07:03:04;;;;;;;2.28;1.35;;;19.30;98.10;;;;;;6218978;23;20164;-74
2022/07/15 07:05:30;;;;;;;2.03;1.30;;;19.40;97.80;;;;;;6217472;23;20557;-73
2022/07/15 07:07:57;;;;;;;1.83;1.20;;;19.50;97.50;;;;;;6214822;23;20208;-74
2022/07/15 07:10:23;;;;;;;1.85;1.20;;;19.60;97.30;;;;;;6217302;23;20215;-72
2022/07/15 07:12:51;;;;;;;2.13;1.27;;;19.70;96.70;;;;;;6214851;23;20165;-72
2022/07/15 07:15:17;;;;;;;3.00;1.73;;;19.70;96.40;;;;;;6215619;23;20185;-73
2022/07/15 07:17:46;;;;;;;2.70;1.70;;;19.80;96.40;;;;;;6218226;23;20150;-73
2022/07/15 07:20:11;;;;;;;2.83;1.33;;;19.80;96.20;;;;;;6215921;23;20168;-74
2022/07/15 07:22:42;;;;;;;3.90;1.52;;;19.70;96.10;;;;;;6214296;23;20357;-73
2022/07/15 07:25:08;;;;;;;2.38;1.25;;;19.70;96.20;;;;;;6215037;23;20161;-73
2022/07/15 07:27:36;;;;;;;1.80;1.25;;;19.70;95.70;;;;;;6215386;23;20192;-73
2022/07/15 07:30:04;;;;;;;2.85;1.42;;;19.60;95.60;;;;;;6216495;23;20158;-73
2022/07/15 07:32:35;;;;;;;2.75;1.40;;;19.60;95.50;;;;;;6219384;23;20268;-73
2022/07/15 07:35:00;;;;;;;2.85;1.65;;;19.50;95.30;;;;;;6217281;23;20257;-69
2022/07/15 07:37:33;;;;;;;2.50;1.10;;;19.50;95.30;;;;;;6220055;23;20202;-69
2022/07/15 07:39:59;;;;;;;1.40;1.10;;;19.50;95.00;;;;;;6219091;23;20177;-74
2022/07/15 07:42:25;;;;;;;2.35;1.05;;;19.40;94.90;;;;;;6216124;23;20243;-72
2022/07/15 07:44:50;;;;;;;2.70;1.20;;;19.40;94.90;;;;;;6189297;23;20241;-74
2022/07/15 07:47:16;;;;;;;2.33;1.02;;;19.50;95.00;;;;;;6197162;23;20200;-71
2022/07/15 07:49:41;;;;;;;2.00;0.90;;;19.50;95.10;;;;;;6190207;23;20153;-71
2022/07/15 07:52:07;;;;;;;2.53;1.20;;;19.50;95.10;;;;;;6190297;23;20213;-72
2022/07/15 07:54:33;;;;;;;3.22;1.15;;;19.60;95.10;;;;;;6189808;23;20173;-71
2022/07/15 07:56:59;;;;;;;1.92;1.00;;;19.70;94.80;;;;;;6190229;23;20185;-75
2022/07/15 07:59:27;;;;;;;3.00;1.08;;;19.80;94.30;;;;;;6189701;23;20177;-72
2022/07/15 08:01:54;;;;;;;2.15;0.90;;;19.90;94.30;;;;;;6190256;23;20184;-73
2022/07/15 08:04:21;;;;;;;2.85;1.00;;;19.90;94.20;;;;;;6189076;23;20153;-72
2022/07/15 08:06:47;;;;;;;2.45;1.17;;;20.00;94.00;;;;;;6188709;23;20172;-73
2022/07/15 08:09:16;;;;;;;1.52;0.90;;;20.10;94.10;;;;;;6188989;23;20260;-73
2022/07/15 08:11:44;;;;;;;2.17;1.00;;;20.30;94.20;;;;;;6189127;23;20228;-74
2022/07/15 08:14:10;;;;;;;0.75;0.60;;;20.40;93.90;;;;;;6188835;23;20184;-71
2022/07/15 08:16:36;;;;;;;3.30;0.95;;;20.50;93.40;;;;;;6189044;23;20173;-74
2022/07/15 08:19:02;;;;;;;1.73;0.80;;;20.70;93.20;;;;;;6189076;23;20219;-72
2022/07/15 08:21:28;;;;;;;2.15;1.00;;;20.70;92.70;;;;;;6188233;23;20161;-71
2022/07/15 08:23:54;;;;;;;1.90;0.75;;;20.80;92.60;;;;;;6214347;23;20155;-73
2022/07/15 08:26:23;;;;;;;3.00;1.00;;;20.80;92.20;;;;;;6189231;23;20295;-73
2022/07/15 08:28:50;;;;;;;1.65;0.70;;;20.80;91.70;;;;;;6188657;23;20176;-73
2022/07/15 08:31:16;;;;;;;2.35;1.00;;;20.80;91.50;;;;;;6188667;23;20173;-73
2022/07/15 08:33:45;;;;;;;1.83;1.10;;;20.80;91.10;;;;;;6188887;23;20226;-73
2022/07/15 08:36:11;;;;;;;3.47;1.10;;;20.70;91.20;;;;;;6188394;23;20277;-73
2022/07/15 08:38:40;;;;;;;1.85;0.95;;;20.70;91.30;;;;;;6188379;23;20177;-71
2022/07/15 08:41:10;;;;;;;1.90;1.13;;;20.60;91.30;;;;;;6188461;23;20248;-73
2022/07/15 08:43:36;;;;;;;3.00;1.33;;;20.60;91.20;;;;;;6202719;23;20176;-72
2022/07/15 08:46:03;;;;;;;1.13;1.00;;;20.60;91.20;;;;;;6213969;23;20227;-73
2022/07/15 08:48:31;;;;;;;1.70;0.88;;;20.60;91.20;;;;;;6214350;23;20188;-73
2022/07/15 08:50:59;;;;;;;1.60;1.00;;;20.50;91.20;;;;;;6213704;23;20181;-73
2022/07/15 08:53:30;;;;;;;0.90;0.70;;;20.60;91.40;;;;;;6214163;23;20156;-73
2022/07/15 08:55:56;;;;;;;1.13;0.70;;;20.70;91.00;;;;;;6213607;23;20241;-73
2022/07/15 08:58:22;;;;;;;1.40;0.80;;;20.70;91.10;;;;;;6213342;23;20267;-72
2022/07/15 09:00:48;;;;;;;1.83;1.00;;;20.70;90.90;;;;;;6213924;23;20165;-73
2022/07/15 09:03:13;;;;;;;2.45;0.80;;;20.80;90.70;;;;;;6213199;23;20149;-72
2022/07/15 09:05:39;;;;;;;1.23;0.75;;;20.80;90.40;;;;;;6213390;23;20161;-71
2022/07/15 09:08:11;;;;;;;2.00;1.00;;;20.90;90.30;;;;;;6213837;23;20161;-73
2022/07/15 09:10:57;;;;;;;1.58;0.80;;;20.90;89.50;;;;;;6213687;23;20181;-73
2022/07/15 09:13:32;;;;;;;2.42;0.70;;;20.90;88.20;;;;;;6213801;23;20153;-74
2022/07/15 09:16:08;;;;;;;1.80;0.98;;;21.00;90.00;;;;;;6213018;23;20267;-73
2022/07/15 09:18:44;;;;;;;1.75;0.70;;;21.10;87.90;;;;;;6215171;23;20177;-71
2022/07/15 09:21:20;;;;;;;3.50;0.90;;;21.20;85.90;;;;;;6213865;23;20149;-74
2022/07/15 09:23:48;;;;;;;1.42;0.65;;;21.20;86.10;;;;;;6215125;23;20177;-71
2022/07/15 09:26:25;;;;;;;1.33;0.75;;;21.30;87.30;;;;;;6217474;23;20220;-73
2022/07/15 09:28:52;;;;;;;1.35;0.90;;;21.30;86.00;;;;;;6216691;23;20173;-73
2022/07/15 09:34:23;;;;;;;2.28;0.90;;;21.50;79.70;;;;;;6219512;23;20236;-73
2022/07/15 09:36:54;;;;;;;2.92;0.75;;;21.60;84.80;;;;;;6212749;23;20197;-73
2022/07/15 09:39:21;;;;;;;1.42;0.60;;;21.60;84.80;;;;;;6216883;23;20138;-72
2022/07/15 09:41:50;;;;;;;2.75;1.73;;;21.70;85.00;;;;;;6216800;23;20281;-75
2022/07/15 09:44:23;;;;;;;1.80;1.10;;;21.80;84.50;;;;;;6221965;23;20169;-73
2022/07/15 09:47:04;;;;;;;1.90;1.10;;;21.80;83.70;;;;;;6214567;23;20165;-80
2022/07/15 09:49:37;;;;;;;1.55;0.70;;;21.80;81.80;;;;;;6214584;23;20188;-75
2022/07/15 09:52:08;;;;;;;1.58;0.95;;;21.90;81.90;;;;;;6220446;23;20149;-76
2022/07/15 09:54:37;;;;;;;2.45;0.90;;;21.90;82.60;;;;;;6213874;23;20252;-72
2022/07/15 09:57:08;;;;;;;2.38;0.70;;;22.00;82.70;;;;;;6215389;23;20182;-71
2022/07/15 09:59:35;;;;;;;2.17;0.90;;;22.10;82.30;;;;;;6216100;23;20199;-71
2022/07/15 10:02:03;;;;;;;1.92;0.75;;;22.10;81.30;;;;;;6218219;23;20235;-71
2022/07/15 10:04:32;;;;;;;1.30;0.70;;;22.20;81.70;;;;;;6213761;23;20202;-71
2022/07/15 10:07:02;;;;;;;4.28;0.90;;;22.20;81.00;;;;;;6214645;23;20180;-71
2022/07/15 10:09:32;;;;;;;1.52;0.90;;;22.20;81.00;;;;;;6214405;23;20175;-69
2022/07/15 10:12:12;;;;;;;1.42;0.65;;;22.30;80.70;;;;;;6216477;23;20157;-70
2022/07/15 10:15:13;;;;;;;1.52;0.90;;;22.30;80.20;;;;;;6214295;23;20199;-70
2022/07/15 10:17:57;;;;;;;2.65;0.85;;;22.50;77.60;;;;;;6218224;23;20191;-72
2022/07/15 10:20:38;;;;;;;2.38;0.95;;;22.50;78.20;;;;;;6215500;23;20169;-70
2022/07/15 10:23:34;;;;;;;1.80;1.10;;;22.60;78.30;;;;;;6214416;23;20149;-71
2022/07/15 10:26:19;;;;;;;1.83;0.88;;;22.60;77.10;;;;;;6215790;23;20153;-70
2022/07/15 10:28:48;;;;;;;3.30;0.98;;;22.50;77.20;;;;;;6216311;23;20184;-73
2022/07/15 10:31:22;;;;;;;1.73;0.70;;;22.50;78.30;;;;;;6214591;23;20153;-73
2022/07/15 10:34:03;;;;;;;1.45;0.80;;;22.60;78.70;;;;;;6214914;23;20401;-74
2022/07/15 10:36:49;;;;;;;1.65;0.80;;;22.70;77.70;;;;;;6218859;23;20237;-71
2022/07/15 10:39:20;;;;;;;3.53;0.95;;;22.80;77.90;;;;;;6218162;23;20172;-71
2022/07/15 10:41:58;;;;;;;2.28;0.80;;;22.90;78.80;;;;;;6215037;23;20176;-67
2022/07/15 10:44:33;;;;;;;1.05;0.70;;;23.00;77.30;;;;;;6216365;23;20192;-67
2022/07/15 10:47:15;;;;;;;1.65;0.90;;;23.10;77.40;;;;;;6217382;23;20205;-71
2022/07/15 10:49:41;;;;;;;2.13;0.90;;;23.10;75.00;;;;;;6214647;23;20157;-70
2022/07/15 10:52:26;;;;;;;1.20;0.80;;;23.10;77.00;;;;;;6215927;23;20165;-72
2022/07/15 10:54:55;;;;;;;1.42;0.80;;;23.10;72.90;;;;;;6215965;23;20199;-73
2022/07/15 10:57:40;;;;;;;3.08;0.80;;;23.10;76.30;;;;;;6217030;23;20233;-68
2022/07/15 11:00:24;;;;;;;1.58;0.90;;;23.10;77.30;;;;;;6214912;23;20184;-72
2022/07/15 11:03:01;;;;;;;2.50;1.02;;;23.30;78.40;;;;;;6217290;23;20157;-73
2022/07/15 11:05:26;;;;;;;2.17;1.05;;;23.60;75.40;;;;;;6215398;23;20244;-74
2022/07/15 11:07:52;;;;;;;1.88;1.02;;;23.70;77.30;;;;;;6214170;23;20193;-73
2022/07/15 11:10:19;;;;;;;1.73;1.00;;;23.80;76.60;;;;;;6214735;23;20535;-73
2022/07/15 11:12:50;;;;;;;2.15;1.08;;;23.70;75.40;;;;;;6214763;23;20157;-72
2022/07/15 11:15:25;;;;;;;2.70;1.08;;;23.80;75.20;;;;;;6215834;23;20173;-74
2022/07/15 11:17:56;;;;;;;2.22;1.20;;;23.80;74.50;;;;;;6217032;23;20223;-75
2022/07/15 11:20:28;;;;;;;2.05;1.00;;;24.00;76.10;;;;;;6216249;23;20181;-71
2022/07/15 11:22:57;;;;;;;2.75;1.38;;;24.20;76.60;;;;;;6221731;23;20244;-73
2022/07/15 11:25:26;;;;;;;3.55;1.38;;;24.40;75.40;;;;;;6215049;23;20164;-72
2022/07/15 11:28:21;;;;;;;1.88;1.15;;;24.50;74.30;;;;;;6214281;23;20168;-73
2022/07/15 11:30:53;;;;;;;1.73;1.20;;;24.60;73.30;;;;;;6216166;23;20153;-75
2022/07/15 11:33:25;;;;;;;2.15;1.40;;;24.60;72.70;;;;;;6216749;23;20177;-76
2022/07/15 11:36:00;;;;;;;2.80;1.25;;;24.60;71.80;;;;;;6215263;23;20184;-70
2022/07/15 11:38:31;;;;;;;2.85;1.30;;;24.60;71.60;;;;;;6215433;23;20149;-72
2022/07/15 11:46:31;;;;;;;2.83;1.50;;;25.20;73.80;;;;;;6215256;23;20188;-73
2022/07/15 11:49:01;;;;;;;1.85;1.27;;;25.40;72.90;;;;;;6189852;23;20215;-74
2022/07/15 11:51:30;;;;;;;2.10;1.23;;;25.50;72.80;;;;;;6190650;23;20157;-75
2022/07/15 11:53:59;;;;;;;2.03;1.33;;;25.60;70.90;;;;;;6188870;23;20554;-75
2022/07/15 11:56:25;;;;;;;2.88;1.42;;;25.60;70.90;;;;;;6190583;23;20303;-74
2022/07/15 11:58:54;;;;;;;3.20;1.30;;;25.60;70.60;;;;;;6217779;23;20180;-76
2022/07/15 12:01:22;;;;;;;3.20;1.30;;;25.60;69.90;;;;;;6190560;23;20146;-77
2022/07/15 12:03:52;;;;;;;2.22;1.40;;;25.50;69.00;;;;;;6191011;23;20154;-74
2022/07/15 12:06:24;;;;;;;3.63;1.40;;;25.50;67.70;;;;;;6190014;23;20180;-75
2022/07/15 12:08:53;;;;;;;4.30;1.50;;;25.30;67.20;;;;;;6191484;23;20164;-70
2022/07/15 12:11:27;;;;;;;2.58;1.30;;;25.10;66.00;;;;;;6190867;23;20248;-75
2022/07/15 12:14:05;;;;;;;3.80;1.50;;;24.90;66.80;;;;;;6189450;23;20153;-72
2022/07/15 12:16:36;;;;;;;1.63;1.15;;;24.80;66.90;;;;;;6189514;23;20181;-71
2022/07/15 12:19:08;;;;;;;2.92;1.30;;;24.80;67.90;;;;;;6188433;23;20165;-72
2022/07/15 12:21:36;;;;;;;2.72;1.30;;;25.00;68.40;;;;;;6188561;23;20299;-70
2022/07/15 12:24:12;;;;;;;2.28;1.20;;;25.20;68.10;;;;;;6189473;23;20149;-69
2022/07/15 12:26:41;;;;;;;2.40;1.38;;;25.30;65.80;;;;;;6193921;23;20153;-70
2022/07/15 12:29:10;;;;;;;1.83;1.20;;;25.40;67.00;;;;;;6195417;23;20176;-70
2022/07/15 12:31:37;;;;;;;2.15;1.25;;;25.50;67.10;;;;;;6188032;23;20188;-69
2022/07/15 12:34:03;;;;;;;2.65;1.40;;;25.50;67.30;;;;;;6187715;23;20153;-68
2022/07/15 12:36:33;;;;;;;2.60;1.33;;;25.70;67.20;;;;;;6188098;23;20195;-70
2022/07/15 12:39:16;;;;;;;2.70;1.30;;;25.80;67.60;;;;;;6188733;23;20157;-73
2022/07/15 12:41:44;;;;;;;3.45;1.50;;;26.00;65.90;;;;;;6188129;23;20157;-70
2022/07/15 12:44:10;;;;;;;2.80;1.40;;;26.10;65.60;;;;;;6209896;23;20169;-69
2022/07/15 12:46:51;;;;;;;1.95;1.10;;;26.20;64.20;;;;;;6213480;23;20153;-68
2022/07/15 12:49:37;;;;;;;1.30;1.20;;;26.30;63.80;;;;;;6213344;23;20176;-70
2022/07/15 12:52:39;;;;;;;1.63;1.05;;;26.40;62.70;;;;;;6213618;23;20153;-69
2022/07/15 12:55:14;;;;;;;1.17;0.70;;;26.60;62.50;;;;;;6213575;23;20175;-70
2022/07/15 12:57:43;;;;;;;1.20;0.70;;;26.90;62.90;;;;;;6213065;23;20259;-70
2022/07/15 13:00:17;;;;;;;3.30;0.80;;;27.10;63.50;;;;;;6214044;23;20350;-69
2022/07/15 13:02:57;;;;;;;1.13;0.70;;;27.30;62.10;;;;;;6213320;23;20276;-69
2022/07/15 13:05:23;;;;;;;1.20;0.75;;;27.40;60.60;;;;;;6213725;23;20160;-69
2022/07/15 13:07:48;;;;;;;2.38;0.90;;;27.40;61.40;;;;;;6214121;23;20161;-69
2022/07/15 13:10:14;;;;;;;1.30;0.80;;;27.30;60.10;;;;;;6213297;23;20157;-69
2022/07/15 13:12:40;;;;;;;1.52;0.90;;;27.20;60.30;;;;;;6212709;23;20153;-66